createdAt,value
2022-08-22T00:00:19.345Z,21.53
2022-08-22T00:02:42.672Z,22.83
2022-08-22T00:02:58.605Z,22.79
2022-08-22T00:03:16.175Z,21.54
2022-08-22T00:06:12.042Z,21.52
2022-08-22T00:08:47.123Z,21.49
2022-08-22T00:11:16.788Z,21.51
2022-08-22T00:13:43.415Z,21.38
2022-08-22T00:19:12.254Z,21.41
2022-08-22T00:21:51.700Z,21.40
2022-08-22T00:24:27.733Z,21.41
2022-08-22T00:27:23.601Z,21.37
2022-08-22T00:30:03.288Z,21.38
2022-08-22T00:32:38.772Z,21.37
2022-08-22T00:35:20.752Z,21.35
2022-08-22T00:37:56.801Z,21.33
2022-08-22T00:41:05.696Z,21.28
2022-08-22T00:44:04.705Z,21.20
2022-08-22T00:46:56.311Z,21.22
2022-08-22T00:49:56.998Z,21.22
2022-08-22T00:52:26.486Z,21.24
2022-08-22T00:55:08.604Z,21.24
2022-08-22T00:57:54.523Z,21.27
2022-08-22T01:00:29.952Z,21.30
2022-08-22T01:03:32.182Z,21.31
2022-08-22T01:06:13.829Z,21.30
2022-08-22T01:09:31.846Z,21.33
2022-08-22T01:12:30.200Z,21.32
2022-08-22T01:15:05.699Z,21.30
2022-08-22T01:17:47.448Z,21.32
2022-08-22T01:20:45.200Z,21.31
2022-08-22T01:23:36.298Z,21.28
2022-08-22T01:26:10.249Z,21.27
2022-08-22T01:29:03.410Z,21.24
2022-08-22T01:31:56.372Z,21.18
2022-08-22T01:34:32.727Z,21.18
2022-08-22T01:37:16.022Z,21.16
2022-08-22T01:40:13.862Z,21.09
2022-08-22T01:42:55.460Z,21.01
2022-08-22T01:45:41.299Z,20.98
2022-08-22T01:48:17.173Z,20.96
2022-08-22T01:51:03.700Z,20.97
2022-08-22T01:53:51.027Z,20.98
2022-08-22T01:56:23.056Z,20.94
2022-08-22T01:59:13.966Z,20.95
2022-08-22T02:02:02.895Z,20.98
2022-08-22T02:04:41.472Z,21.02
2022-08-22T02:07:31.732Z,21.02
2022-08-22T02:10:05.170Z,21.02
2022-08-22T02:12:41.506Z,21.04
2022-08-22T02:15:14.433Z,21.03
2022-08-22T02:18:12.295Z,20.97
2022-08-22T02:20:48.140Z,20.90
2022-08-22T02:23:23.810Z,20.77
2022-08-22T02:26:02.683Z,20.69
2022-08-22T02:28:40.381Z,20.59
2022-08-22T02:31:49.348Z,20.60
2022-08-22T02:34:31.491Z,20.57
2022-08-22T02:37:06.956Z,20.57
2022-08-22T02:39:42.388Z,20.56
2022-08-22T02:42:18.099Z,20.55
2022-08-22T02:45:26.497Z,20.56
2022-08-22T02:47:57.004Z,20.53
2022-08-22T02:50:36.199Z,20.49
2022-08-22T02:53:16.497Z,20.45
2022-08-22T02:55:56.486Z,20.41
2022-08-22T02:58:39.833Z,20.40
2022-08-22T03:01:16.317Z,20.43
2022-08-22T03:03:47.359Z,20.43
2022-08-22T03:06:34.928Z,20.46
2022-08-22T03:09:16.688Z,20.43
2022-08-22T03:11:49.542Z,20.45
2022-08-22T03:14:27.146Z,20.45
2022-08-22T03:17:06.120Z,20.44
2022-08-22T03:20:00.620Z,20.43
2022-08-22T03:22:49.051Z,20.43
2022-08-22T03:25:36.841Z,20.42
2022-08-22T03:28:26.427Z,20.42
2022-08-22T03:31:07.203Z,20.43
2022-08-22T03:33:34.078Z,20.43
2022-08-22T03:36:07.176Z,20.47
2022-08-22T03:38:34.304Z,20.45
2022-08-22T03:41:07.201Z,20.45
2022-08-22T03:43:58.188Z,20.51
2022-08-22T03:46:52.978Z,20.50
2022-08-22T03:49:38.589Z,20.49
2022-08-22T03:52:11.196Z,20.54
2022-08-22T03:54:55.972Z,20.57
2022-08-22T03:57:58.353Z,20.58
2022-08-22T04:00:34.480Z,20.59
2022-08-22T04:03:46.650Z,20.60
2022-08-22T04:06:48.310Z,20.60
2022-08-22T04:09:30.193Z,20.61
2022-08-22T04:12:22.454Z,20.66
2022-08-22T04:15:07.542Z,20.71
2022-08-22T04:18:12.866Z,20.73
2022-08-22T04:21:16.814Z,20.80
2022-08-22T04:24:19.143Z,20.82
2022-08-22T04:27:10.976Z,20.77
2022-08-22T04:29:45.829Z,20.77
2022-08-22T04:32:27.217Z,20.80
2022-08-22T04:35:08.230Z,20.84
2022-08-22T04:38:09.220Z,20.96
2022-08-22T04:41:22.312Z,20.96
2022-08-22T04:43:59.313Z,21.03
2022-08-22T04:46:55.891Z,21.12
2022-08-22T04:49:37.488Z,21.21
2022-08-22T04:52:22.755Z,21.20
2022-08-22T04:54:59.586Z,21.16
2022-08-22T04:58:06.686Z,21.16
2022-08-22T05:00:54.992Z,21.22
2022-08-22T05:03:27.078Z,21.34
2022-08-22T05:05:55.720Z,21.52
2022-08-22T05:08:26.569Z,21.65
2022-08-22T05:10:54.592Z,21.77
2022-08-22T05:13:30.310Z,21.93
2022-08-22T05:16:04.674Z,22.06
2022-08-22T05:18:39.999Z,22.10
2022-08-22T05:21:11.089Z,22.07
2022-08-22T05:23:50.861Z,22.09
2022-08-22T05:26:21.588Z,22.04
2022-08-22T05:28:58.089Z,22.04
2022-08-22T05:31:33.535Z,22.21
2022-08-22T05:34:07.030Z,22.43
2022-08-22T05:36:55.796Z,22.75
2022-08-22T05:39:28.051Z,22.99
2022-08-22T05:42:00.555Z,23.07
2022-08-22T05:44:34.434Z,23.13
2022-08-22T05:47:03.678Z,23.02
2022-08-22T05:49:43.010Z,22.95
2022-08-22T05:52:24.989Z,23.12
2022-08-22T05:55:04.973Z,23.03
2022-08-22T05:57:42.200Z,23.11
2022-08-22T06:00:13.228Z,23.70
2022-08-22T06:03:03.267Z,23.66
2022-08-22T06:05:36.130Z,23.38
2022-08-22T06:08:25.565Z,23.34
2022-08-22T06:10:59.289Z,23.39
2022-08-22T06:13:32.284Z,23.38
2022-08-22T06:16:36.056Z,23.31
2022-08-22T06:19:04.793Z,23.38
2022-08-22T06:21:50.252Z,23.49
2022-08-22T06:24:26.491Z,23.69
2022-08-22T06:29:58.828Z,24.11
2022-08-22T06:32:58.276Z,24.33
2022-08-22T06:35:25.424Z,24.44
2022-08-22T06:37:57.801Z,24.29
2022-08-22T06:40:28.343Z,24.09
2022-08-22T06:42:57.515Z,23.94
2022-08-22T06:45:32.521Z,23.73
2022-08-22T06:48:05.673Z,23.57
2022-08-22T06:50:36.755Z,23.53
2022-08-22T06:53:07.921Z,23.61
2022-08-22T06:55:37.920Z,23.85
2022-08-22T06:58:16.180Z,24.41
2022-08-22T07:00:47.565Z,24.86
2022-08-22T07:03:40.287Z,25.25
2022-08-22T07:06:14.503Z,25.53
2022-08-22T07:08:42.305Z,25.71
2022-08-22T07:11:21.824Z,26.00
2022-08-22T07:14:02.897Z,26.10
2022-08-22T07:16:49.880Z,26.33
2022-08-22T07:19:37.993Z,27.34
2022-08-22T07:22:23.480Z,27.83
2022-08-22T07:25:11.239Z,28.02
2022-08-22T07:28:09.042Z,28.86
2022-08-22T07:30:57.681Z,30.39
2022-08-22T07:33:42.335Z,30.67
2022-08-22T07:36:25.067Z,31.50
2022-08-22T07:39:30.065Z,33.32
2022-08-22T07:42:15.819Z,35.59
2022-08-22T07:44:45.605Z,37.20
2022-08-22T07:47:26.345Z,37.90
2022-08-22T07:50:07.432Z,38.42
2022-08-22T07:52:45.853Z,39.21
2022-08-22T07:55:23.253Z,38.69
2022-08-22T07:57:56.745Z,37.96
2022-08-22T08:00:25.191Z,37.15
2022-08-22T08:02:56.466Z,35.76
2022-08-22T08:05:27.603Z,35.06
2022-08-22T08:07:56.680Z,34.32
2022-08-22T08:10:31.445Z,34.27
2022-08-22T08:13:06.572Z,35.18
2022-08-22T08:15:37.381Z,35.52
2022-08-22T08:18:10.790Z,36.31
2022-08-22T08:20:38.117Z,36.61
2022-08-22T08:23:09.531Z,37.98
2022-08-22T08:25:57.641Z,39.28
2022-08-22T08:28:38.751Z,41.42
2022-08-22T08:31:10.811Z,42.85
2022-08-22T08:33:44.338Z,42.99
2022-08-22T08:36:31.303Z,44.70
2022-08-22T08:39:04.089Z,46.93
2022-08-22T08:41:49.204Z,47.14
2022-08-22T08:44:30.854Z,45.75
2022-08-22T08:47:03.483Z,45.74
2022-08-22T08:49:50.501Z,46.78
2022-08-22T08:52:39.828Z,47.10
2022-08-22T08:55:21.801Z,46.52
2022-08-22T08:58:17.809Z,44.55
2022-08-22T09:00:44.975Z,44.56
2022-08-22T09:03:37.486Z,44.62
2022-08-22T09:06:16.818Z,43.80
2022-08-22T09:09:14.743Z,42.79
2022-08-22T09:12:12.997Z,42.27
2022-08-22T09:15:01.344Z,42.24
2022-08-22T09:17:31.112Z,41.67
2022-08-22T09:20:34.693Z,40.56
2022-08-22T09:23:33.850Z,39.00
2022-08-22T09:26:08.401Z,37.29
2022-08-22T09:28:56.903Z,37.24
2022-08-22T09:31:47.433Z,38.05
2022-08-22T09:34:47.730Z,40.09
2022-08-22T09:37:26.560Z,40.59
2022-08-22T09:43:08.763Z,38.55
2022-08-22T09:45:40.644Z,36.69
2022-08-22T09:48:23.878Z,35.47
2022-08-22T09:51:31.647Z,34.50
2022-08-22T09:54:21.578Z,33.69
2022-08-22T09:56:58.598Z,33.22
2022-08-22T09:59:34.159Z,32.95
2022-08-22T10:02:19.570Z,32.73
2022-08-22T10:04:58.559Z,32.38
2022-08-22T10:07:28.072Z,32.17
2022-08-22T10:10:10.265Z,31.86
2022-08-22T10:12:44.849Z,31.66
2022-08-22T10:15:52.673Z,31.53
2022-08-22T10:18:53.847Z,31.14
2022-08-22T10:21:42.736Z,30.79
2022-08-22T10:24:55.647Z,30.77
2022-08-22T10:27:41.047Z,30.58
2022-08-22T10:30:16.326Z,30.45
2022-08-22T10:33:12.162Z,30.39
2022-08-22T10:35:52.080Z,30.16
2022-08-22T10:38:46.224Z,30.15
2022-08-22T10:41:28.815Z,30.11
2022-08-22T10:44:22.009Z,30.20
2022-08-22T10:47:06.018Z,30.08
2022-08-22T10:49:35.437Z,30.00
2022-08-22T10:52:15.258Z,29.99
2022-08-22T10:54:58.052Z,30.04
2022-08-22T10:57:39.043Z,30.08
2022-08-22T11:00:27.891Z,30.06
2022-08-22T11:03:32.130Z,29.98
2022-08-22T11:06:03.603Z,29.99
2022-08-22T11:08:34.779Z,29.93
2022-08-22T11:11:09.318Z,29.98
2022-08-22T11:13:50.394Z,30.00
2022-08-22T11:16:48.417Z,29.86
2022-08-22T11:19:39.040Z,29.81
2022-08-22T11:22:21.394Z,29.89
2022-08-22T11:25:14.348Z,29.88
2022-08-22T11:27:56.455Z,29.77
2022-08-22T11:30:44.263Z,29.73
2022-08-22T11:36:36.619Z,30.10
2022-08-22T11:39:22.304Z,30.11
2022-08-22T11:41:52.487Z,30.10
2022-08-22T11:44:31.305Z,30.02
2022-08-22T11:47:07.561Z,29.88
2022-08-22T11:49:40.464Z,29.81
2022-08-22T11:52:20.654Z,29.81
2022-08-22T11:55:02.461Z,29.81
2022-08-22T11:57:32.889Z,29.72
2022-08-22T12:00:38.786Z,29.61
2022-08-22T12:03:26.641Z,29.49
2022-08-22T12:06:22.347Z,29.47
2022-08-22T12:09:08.713Z,29.42
2022-08-22T12:11:48.684Z,29.40
2022-08-22T12:14:18.728Z,29.35
2022-08-22T12:17:18.942Z,29.36
2022-08-22T12:20:17.025Z,29.37
2022-08-22T12:22:50.673Z,29.46
2022-08-22T12:25:37.436Z,29.49
2022-08-22T12:28:41.575Z,29.49
2022-08-22T12:31:11.087Z,29.50
2022-08-22T12:33:50.351Z,29.51
2022-08-22T12:36:57.074Z,29.46
2022-08-22T12:39:49.984Z,29.39
2022-08-22T12:42:22.239Z,29.33
2022-08-22T12:45:06.976Z,29.33
2022-08-22T12:47:52.104Z,29.40
2022-08-22T12:50:44.119Z,29.41
2022-08-22T12:53:39.434Z,29.40
2022-08-22T12:57:03.679Z,29.35
2022-08-22T12:59:46.789Z,29.34
2022-08-22T13:02:31.759Z,29.42
2022-08-22T13:05:09.073Z,29.48
2022-08-22T13:07:38.535Z,29.47
2022-08-22T13:10:39.453Z,29.40
2022-08-22T13:13:12.753Z,29.30
2022-08-22T13:15:53.809Z,29.27
2022-08-22T13:18:30.623Z,29.24
2022-08-22T13:21:02.348Z,29.25
2022-08-22T13:23:39.808Z,29.28
2022-08-22T13:26:31.658Z,29.29
2022-08-22T13:32:00.591Z,29.40
2022-08-22T13:34:39.998Z,29.45
2022-08-22T13:37:13.389Z,29.47
2022-08-22T13:39:45.439Z,29.47
2022-08-22T13:42:30.181Z,29.43
2022-08-22T13:45:02.484Z,29.43
2022-08-22T13:47:34.466Z,29.45
2022-08-22T13:50:07.614Z,29.39
2022-08-22T13:52:42.072Z,29.28
2022-08-22T13:55:19.139Z,29.21
2022-08-22T13:58:00.699Z,29.20
2022-08-22T14:00:48.669Z,29.16
2022-08-22T14:03:48.798Z,29.16
2022-08-22T14:06:43.801Z,29.10
2022-08-22T14:09:30.689Z,29.09
2022-08-22T14:12:21.209Z,29.06
2022-08-22T14:15:00.368Z,29.03
2022-08-22T14:17:38.498Z,28.99
2022-08-22T14:20:28.331Z,29.00
2022-08-22T14:23:07.560Z,28.98
2022-08-22T14:25:39.215Z,28.96
2022-08-22T14:28:32.863Z,28.92
2022-08-22T14:31:08.584Z,28.84
2022-08-22T14:33:40.087Z,28.78
2022-08-22T14:36:46.208Z,28.74
2022-08-22T14:39:42.773Z,28.68
2022-08-22T14:42:46.516Z,28.60
2022-08-22T14:45:25.030Z,28.58
2022-08-22T14:48:29.762Z,28.56
2022-08-22T14:50:56.581Z,28.53
2022-08-22T14:53:30.601Z,28.55
2022-08-22T14:56:00.204Z,28.52
2022-08-22T14:58:30.205Z,28.48
2022-08-22T15:01:07.078Z,28.44
2022-08-22T15:03:39.389Z,28.43
2022-08-22T15:06:57.908Z,28.43
2022-08-22T15:09:41.548Z,28.41
2022-08-22T15:12:27.287Z,28.41
2022-08-22T15:14:58.399Z,28.40
2022-08-22T15:17:38.913Z,28.41
2022-08-22T15:20:34.047Z,28.40
2022-08-22T15:23:10.109Z,28.34
2022-08-22T15:25:41.271Z,28.32
2022-08-22T15:28:20.590Z,28.27
2022-08-22T15:31:03.743Z,28.23
2022-08-22T15:33:37.902Z,28.18
2022-08-22T15:36:22.142Z,28.16
2022-08-22T15:38:56.056Z,28.13
2022-08-22T15:41:36.748Z,28.11
2022-08-22T15:44:31.082Z,28.10
2022-08-22T15:47:23.708Z,28.06
2022-08-22T15:49:56.318Z,28.01
2022-08-22T15:52:36.095Z,27.94
2022-08-22T15:55:18.042Z,27.86
2022-08-22T15:58:02.606Z,27.79
2022-08-22T16:00:32.763Z,27.75
2022-08-22T16:03:09.215Z,27.72
2022-08-22T16:05:55.380Z,27.67
2022-08-22T16:08:36.707Z,27.67
2022-08-22T16:11:03.560Z,27.62
2022-08-22T16:13:30.366Z,27.61
2022-08-22T16:16:17.826Z,27.63
2022-08-22T16:18:47.496Z,27.56
2022-08-22T16:21:23.241Z,27.52
2022-08-22T16:23:50.203Z,27.43
2022-08-22T16:26:30.736Z,27.41
2022-08-22T16:29:06.899Z,27.39
2022-08-22T16:31:39.767Z,27.36
2022-08-22T16:34:48.529Z,27.36
2022-08-22T16:37:17.921Z,27.32
2022-08-22T16:40:05.522Z,27.34
2022-08-22T16:42:51.534Z,27.31
2022-08-22T16:45:45.562Z,27.24
2022-08-22T16:48:17.349Z,27.19
2022-08-22T16:50:44.222Z,27.13
2022-08-22T16:53:30.902Z,27.11
2022-08-22T16:56:48.888Z,27.06
2022-08-22T16:59:38.415Z,26.98
2022-08-22T17:02:33.538Z,26.93
2022-08-22T17:05:09.001Z,26.85
2022-08-22T17:07:47.146Z,26.83
2022-08-22T17:10:52.918Z,26.82
2022-08-22T17:13:56.788Z,26.79
2022-08-22T17:16:56.624Z,26.76
2022-08-22T17:19:42.003Z,26.77
2022-08-22T17:22:31.957Z,26.73
2022-08-22T17:25:16.956Z,26.69
2022-08-22T17:27:48.448Z,26.69
2022-08-22T17:30:41.534Z,26.66
2022-08-22T17:33:33.304Z,26.61
2022-08-22T17:36:26.717Z,26.59
2022-08-22T17:39:18.750Z,26.56
2022-08-22T17:41:54.729Z,26.52
2022-08-22T17:44:32.639Z,26.49
2022-08-22T17:47:17.174Z,26.46
2022-08-22T17:49:45.147Z,26.40
2022-08-22T17:52:21.584Z,26.42
2022-08-22T17:55:02.174Z,26.38
2022-08-22T17:57:52.433Z,26.34
2022-08-22T18:00:30.839Z,26.34
2022-08-22T18:03:22.172Z,26.30
2022-08-22T18:06:10.139Z,26.27
2022-08-22T18:11:50.118Z,26.20
2022-08-22T18:14:36.839Z,26.25
2022-08-22T18:17:18.000Z,26.25
2022-08-22T18:20:37.571Z,26.23
2022-08-22T18:23:21.480Z,26.20
2022-08-22T18:26:23.992Z,26.15
2022-08-22T18:28:53.578Z,26.14
2022-08-22T18:31:29.146Z,26.01
2022-08-22T18:34:03.183Z,26.04
2022-08-22T18:36:38.240Z,26.05
2022-08-22T18:39:16.949Z,26.03
2022-08-22T18:41:57.245Z,26.08
2022-08-22T18:44:28.810Z,26.09
2022-08-22T18:47:20.457Z,26.09
2022-08-22T18:49:54.816Z,26.08
2022-08-22T18:52:34.475Z,26.05
2022-08-22T18:55:19.442Z,26.00
2022-08-22T18:57:56.261Z,25.94
2022-08-22T19:00:44.166Z,25.88
2022-08-22T19:03:21.024Z,25.83
2022-08-22T19:06:15.246Z,25.82
2022-08-22T19:08:52.986Z,25.81
2022-08-22T19:11:37.122Z,25.78
2022-08-22T19:14:22.559Z,25.75
2022-08-22T19:17:15.045Z,25.74
2022-08-22T19:20:21.627Z,25.73
2022-08-22T19:22:50.918Z,25.67
2022-08-22T19:25:26.262Z,25.68
2022-08-22T19:28:11.504Z,25.69
2022-08-22T19:30:49.990Z,25.67
2022-08-22T19:33:19.707Z,25.64
2022-08-22T19:35:52.415Z,25.64
2022-08-22T19:38:57.476Z,25.65
2022-08-22T19:41:41.532Z,25.61
2022-08-22T19:44:33.729Z,25.57
2022-08-22T19:47:01.465Z,25.53
2022-08-22T19:49:47.886Z,25.52
2022-08-22T19:52:36.520Z,25.49
2022-08-22T19:55:44.384Z,25.44
2022-08-22T19:58:32.571Z,25.42
2022-08-22T20:01:21.721Z,25.36
2022-08-22T20:03:58.317Z,25.37
2022-08-22T20:06:55.131Z,25.38
2022-08-22T20:09:44.055Z,25.36
2022-08-22T20:12:32.251Z,25.34
2022-08-22T20:15:16.648Z,25.33
2022-08-22T20:17:43.847Z,25.33
2022-08-22T20:20:23.968Z,25.39
2022-08-22T20:23:03.006Z,25.38
2022-08-22T20:25:42.177Z,25.39
2022-08-22T20:28:28.342Z,25.38
2022-08-22T20:30:59.539Z,25.37
2022-08-22T20:33:39.715Z,25.35
2022-08-22T20:36:21.177Z,25.35
2022-08-22T20:39:00.224Z,25.28
2022-08-22T20:41:35.778Z,25.28
2022-08-22T20:44:06.963Z,25.25
2022-08-22T20:46:53.313Z,25.24
2022-08-22T20:49:24.765Z,25.18
2022-08-22T20:52:03.807Z,25.11
2022-08-22T20:54:40.271Z,25.09
2022-08-22T20:57:17.279Z,25.06
2022-08-22T21:00:14.957Z,24.99
2022-08-22T21:02:55.558Z,24.97
2022-08-22T21:05:26.002Z,24.93
2022-08-22T21:08:12.810Z,24.90
2022-08-22T21:11:14.523Z,24.84
2022-08-22T21:13:41.343Z,24.79
2022-08-22T21:16:13.096Z,24.83
2022-08-22T21:18:45.824Z,24.77
2022-08-22T21:21:19.604Z,24.79
2022-08-22T21:23:57.400Z,24.77
2022-08-22T21:26:30.218Z,24.73
2022-08-22T21:29:00.977Z,24.71
2022-08-22T21:31:38.708Z,24.68
2022-08-22T21:34:06.016Z,24.61
2022-08-22T21:36:38.187Z,24.60
2022-08-22T21:39:23.264Z,24.58
2022-08-22T21:42:08.906Z,24.57
2022-08-22T21:44:40.621Z,24.55
2022-08-22T21:47:31.240Z,24.50
2022-08-22T21:50:13.725Z,24.45
2022-08-22T21:52:53.873Z,24.42
2022-08-22T21:55:44.490Z,24.40
2022-08-22T21:58:36.309Z,24.38
2022-08-22T22:01:22.403Z,24.36
2022-08-22T22:03:52.202Z,24.33
2022-08-22T22:06:19.683Z,24.32
2022-08-22T22:08:46.533Z,24.29
2022-08-22T22:11:15.417Z,24.29
2022-08-22T22:13:43.302Z,24.22
2022-08-22T22:16:12.288Z,24.23
2022-08-22T22:18:39.918Z,24.20
2022-08-22T22:21:08.028Z,24.22
2022-08-22T22:23:34.867Z,24.22
2022-08-22T22:26:04.865Z,24.23
2022-08-22T22:28:36.833Z,24.22
2022-08-22T22:31:04.692Z,24.20
2022-08-22T22:33:36.897Z,24.15
2022-08-22T22:36:08.106Z,24.19
2022-08-22T22:38:35.367Z,24.16
2022-08-22T22:41:02.122Z,24.16
2022-08-22T22:43:29.035Z,24.14
2022-08-22T22:45:56.572Z,24.13
2022-08-22T22:48:24.719Z,24.12
2022-08-22T22:50:53.064Z,24.10
2022-08-22T22:53:21.380Z,24.07
2022-08-22T22:56:00.656Z,24.02
2022-08-22T22:58:28.517Z,24.03
2022-08-22T23:00:58.344Z,24.01
2022-08-22T23:03:26.854Z,23.99
2022-08-22T23:05:53.751Z,23.97
2022-08-22T23:08:20.543Z,23.95
2022-08-22T23:10:47.388Z,23.95
2022-08-22T23:13:14.470Z,23.93
2022-08-22T23:15:41.564Z,23.89
2022-08-22T23:18:08.452Z,23.86
2022-08-22T23:20:35.326Z,23.85
2022-08-22T23:23:02.113Z,23.84
2022-08-22T23:25:28.958Z,23.83
2022-08-22T23:27:55.855Z,23.83
2022-08-22T23:30:23.428Z,23.80
2022-08-22T23:32:50.172Z,23.79
2022-08-22T23:35:17.104Z,23.77
2022-08-22T23:37:44.236Z,23.75
2022-08-22T23:40:11.655Z,23.72
2022-08-22T23:42:38.416Z,23.72
2022-08-22T23:45:05.875Z,23.70
2022-08-22T23:47:32.610Z,23.69
2022-08-22T23:49:59.354Z,23.69
2022-08-22T23:52:33.164Z,23.65
2022-08-22T23:54:59.897Z,23.64
2022-08-22T23:57:27.580Z,23.62
2022-08-22T23:59:57.593Z,23.59
